sensor_id;sensor_type;location;lat;lon;timestamp;P1;durP1;ratioP1;P2;durP2;ratioP2
72557;SDS011;60583;50.094;8.748;2024-02-28T00:00:33;16.92;;;10.20;;
72557;SDS011;60583;50.094;8.748;2024-02-28T00:03:16;20.33;;;10.40;;
72557;SDS011;60583;50.094;8.748;2024-02-28T00:06:00;22.00;;;10.80;;
72557;SDS011;60583;50.094;8.748;2024-02-28T00:08:44;19.10;;;10.98;;
72557;SDS011;60583;50.094;8.748;2024-02-28T00:11:29;19.58;;;11.00;;
72557;SDS011;60583;50.094;8.748;2024-02-28T00:14:13;19.27;;;10.50;;
72557;SDS011;60583;50.094;8.748;2024-02-28T00:16:58;19.77;;;10.68;;
72557;SDS011;60583;50.094;8.748;2024-02-28T00:19:41;20.20;;;10.48;;
72557;SDS011;60583;50.094;8.748;2024-02-28T00:22:25;23.80;;;11.57;;
72557;SDS011;60583;50.094;8.748;2024-02-28T00:25:09;21.05;;;11.48;;
72557;SDS011;60583;50.094;8.748;2024-02-28T00:27:55;21.15;;;11.25;;
72557;SDS011;60583;50.094;8.748;2024-02-28T00:30:39;21.38;;;11.98;;
72557;SDS011;60583;50.094;8.748;2024-02-28T00:33:24;21.25;;;10.85;;
72557;SDS011;60583;50.094;8.748;2024-02-28T00:36:08;21.35;;;11.43;;
72557;SDS011;60583;50.094;8.748;2024-02-28T00:38:52;21.05;;;11.93;;
72557;SDS011;60583;50.094;8.748;2024-02-28T00:41:37;21.33;;;11.38;;
72557;SDS011;60583;50.094;8.748;2024-02-28T00:44:21;19.73;;;11.25;;
72557;SDS011;60583;50.094;8.748;2024-02-28T00:47:05;18.08;;;10.13;;
72557;SDS011;60583;50.094;8.748;2024-02-28T00:49:49;18.95;;;10.70;;
72557;SDS011;60583;50.094;8.748;2024-02-28T00:52:33;22.55;;;11.07;;
72557;SDS011;60583;50.094;8.748;2024-02-28T00:55:17;19.83;;;9.85;;
72557;SDS011;60583;50.094;8.748;2024-02-28T00:58:02;19.55;;;10.32;;
72557;SDS011;60583;50.094;8.748;2024-02-28T01:00:47;19.48;;;9.75;;
72557;SDS011;60583;50.094;8.748;2024-02-28T01:03:31;21.75;;;11.50;;
72557;SDS011;60583;50.094;8.748;2024-02-28T01:06:15;19.75;;;11.40;;
72557;SDS011;60583;50.094;8.748;2024-02-28T01:09:00;19.98;;;11.18;;
72557;SDS011;60583;50.094;8.748;2024-02-28T01:11:44;20.35;;;10.77;;
72557;SDS011;60583;50.094;8.748;2024-02-28T01:14:27;18.67;;;9.88;;
72557;SDS011;60583;50.094;8.748;2024-02-28T01:17:11;20.98;;;10.38;;
72557;SDS011;60583;50.094;8.748;2024-02-28T01:19:56;19.40;;;10.45;;
72557;SDS011;60583;50.094;8.748;2024-02-28T01:22:40;20.98;;;10.48;;
72557;SDS011;60583;50.094;8.748;2024-02-28T01:25:24;21.60;;;10.77;;
72557;SDS011;60583;50.094;8.748;2024-02-28T01:28:08;21.85;;;10.52;;
72557;SDS011;60583;50.094;8.748;2024-02-28T01:30:52;20.88;;;10.85;;
72557;SDS011;60583;50.094;8.748;2024-02-28T01:33:36;20.25;;;11.32;;
72557;SDS011;60583;50.094;8.748;2024-02-28T01:36:20;20.25;;;10.75;;
72557;SDS011;60583;50.094;8.748;2024-02-28T01:39:04;19.50;;;10.75;;
72557;SDS011;60583;50.094;8.748;2024-02-28T01:41:54;21.25;;;10.90;;
72557;SDS011;60583;50.094;8.748;2024-02-28T01:44:40;19.75;;;9.68;;
72557;SDS011;60583;50.094;8.748;2024-02-28T01:47:28;20.23;;;11.02;;
72557;SDS011;60583;50.094;8.748;2024-02-28T01:50:12;19.30;;;9.48;;
72557;SDS011;60583;50.094;8.748;2024-02-28T01:52:56;19.77;;;10.65;;
72557;SDS011;60583;50.094;8.748;2024-02-28T01:55:41;20.73;;;11.05;;
72557;SDS011;60583;50.094;8.748;2024-02-28T01:58:25;19.33;;;9.82;;
72557;SDS011;60583;50.094;8.748;2024-02-28T02:01:10;18.42;;;10.10;;
72557;SDS011;60583;50.094;8.748;2024-02-28T02:03:55;23.05;;;11.57;;
72557;SDS011;60583;50.094;8.748;2024-02-28T02:06:41;22.48;;;10.75;;
72557;SDS011;60583;50.094;8.748;2024-02-28T02:09:27;24.23;;;11.70;;
72557;SDS011;60583;50.094;8.748;2024-02-28T02:12:11;21.33;;;11.25;;
72557;SDS011;60583;50.094;8.748;2024-02-28T02:14:55;24.80;;;11.68;;
72557;SDS011;60583;50.094;8.748;2024-02-28T02:17:39;21.33;;;10.80;;
72557;SDS011;60583;50.094;8.748;2024-02-28T02:20:23;23.38;;;11.52;;
72557;SDS011;60583;50.094;8.748;2024-02-28T02:23:09;21.75;;;11.23;;
72557;SDS011;60583;50.094;8.748;2024-02-28T02:25:53;24.08;;;11.98;;
72557;SDS011;60583;50.094;8.748;2024-02-28T02:28:37;21.08;;;10.27;;
72557;SDS011;60583;50.094;8.748;2024-02-28T02:31:21;22.23;;;10.52;;
72557;SDS011;60583;50.094;8.748;2024-02-28T02:34:05;22.25;;;11.27;;
72557;SDS011;60583;50.094;8.748;2024-02-28T02:36:49;21.63;;;11.88;;
72557;SDS011;60583;50.094;8.748;2024-02-28T02:39:33;21.98;;;11.77;;
72557;SDS011;60583;50.094;8.748;2024-02-28T02:42:17;21.13;;;10.32;;
72557;SDS011;60583;50.094;8.748;2024-02-28T02:45:01;21.35;;;10.65;;
72557;SDS011;60583;50.094;8.748;2024-02-28T02:47:45;28.33;;;12.25;;
72557;SDS011;60583;50.094;8.748;2024-02-28T02:50:29;25.17;;;12.10;;
72557;SDS011;60583;50.094;8.748;2024-02-28T02:53:13;22.80;;;12.10;;
72557;SDS011;60583;50.094;8.748;2024-02-28T02:55:57;27.40;;;13.40;;
72557;SDS011;60583;50.094;8.748;2024-02-28T02:58:41;23.52;;;11.77;;
72557;SDS011;60583;50.094;8.748;2024-02-28T03:01:25;23.80;;;11.40;;
72557;SDS011;60583;50.094;8.748;2024-02-28T03:04:09;24.10;;;12.63;;
72557;SDS011;60583;50.094;8.748;2024-02-28T03:06:53;22.65;;;11.35;;
72557;SDS011;60583;50.094;8.748;2024-02-28T03:09:37;23.55;;;11.23;;
72557;SDS011;60583;50.094;8.748;2024-02-28T03:12:21;24.88;;;13.00;;
72557;SDS011;60583;50.094;8.748;2024-02-28T03:15:05;23.05;;;10.77;;
72557;SDS011;60583;50.094;8.748;2024-02-28T03:17:49;24.38;;;12.73;;
72557;SDS011;60583;50.094;8.748;2024-02-28T03:20:33;25.50;;;12.40;;
72557;SDS011;60583;50.094;8.748;2024-02-28T03:23:18;25.10;;;11.88;;
72557;SDS011;60583;50.094;8.748;2024-02-28T03:26:02;22.38;;;11.77;;
72557;SDS011;60583;50.094;8.748;2024-02-28T03:28:47;24.45;;;12.30;;
72557;SDS011;60583;50.094;8.748;2024-02-28T03:31:31;26.02;;;11.77;;
72557;SDS011;60583;50.094;8.748;2024-02-28T03:34:14;22.65;;;12.20;;
72557;SDS011;60583;50.094;8.748;2024-02-28T03:36:58;24.17;;;11.73;;
72557;SDS011;60583;50.094;8.748;2024-02-28T03:39:42;22.83;;;11.30;;
72557;SDS011;60583;50.094;8.748;2024-02-28T03:42:26;25.80;;;12.50;;
72557;SDS011;60583;50.094;8.748;2024-02-28T03:45:10;24.08;;;10.60;;
72557;SDS011;60583;50.094;8.748;2024-02-28T03:47:54;24.42;;;12.63;;
72557;SDS011;60583;50.094;8.748;2024-02-28T03:50:38;25.70;;;11.95;;
72557;SDS011;60583;50.094;8.748;2024-02-28T03:53:22;21.50;;;11.27;;
72557;SDS011;60583;50.094;8.748;2024-02-28T03:56:07;26.80;;;11.88;;
72557;SDS011;60583;50.094;8.748;2024-02-28T03:58:51;27.92;;;12.90;;
72557;SDS011;60583;50.094;8.748;2024-02-28T04:01:35;26.63;;;12.20;;
72557;SDS011;60583;50.094;8.748;2024-02-28T04:04:19;25.58;;;11.73;;
72557;SDS011;60583;50.094;8.748;2024-02-28T04:07:03;25.80;;;12.15;;
72557;SDS011;60583;50.094;8.748;2024-02-28T04:09:47;27.58;;;13.05;;
72557;SDS011;60583;50.094;8.748;2024-02-28T04:12:31;25.02;;;12.02;;
72557;SDS011;60583;50.094;8.748;2024-02-28T04:15:15;27.58;;;13.35;;
72557;SDS011;60583;50.094;8.748;2024-02-28T04:17:59;27.35;;;12.18;;
72557;SDS011;60583;50.094;8.748;2024-02-28T04:20:43;27.92;;;12.95;;
72557;SDS011;60583;50.094;8.748;2024-02-28T04:23:27;27.45;;;13.02;;
72557;SDS011;60583;50.094;8.748;2024-02-28T04:26:11;27.75;;;12.35;;
72557;SDS011;60583;50.094;8.748;2024-02-28T04:28:55;24.67;;;11.43;;
72557;SDS011;60583;50.094;8.748;2024-02-28T04:31:39;28.35;;;13.48;;
72557;SDS011;60583;50.094;8.748;2024-02-28T04:34:24;28.02;;;13.52;;
72557;SDS011;60583;50.094;8.748;2024-02-28T04:37:08;25.80;;;12.48;;
72557;SDS011;60583;50.094;8.748;2024-02-28T04:39:51;27.90;;;12.30;;
72557;SDS011;60583;50.094;8.748;2024-02-28T04:42:35;27.08;;;13.48;;
72557;SDS011;60583;50.094;8.748;2024-02-28T04:45:19;27.98;;;13.82;;
72557;SDS011;60583;50.094;8.748;2024-02-28T04:48:03;27.45;;;13.25;;
72557;SDS011;60583;50.094;8.748;2024-02-28T04:50:48;25.25;;;12.00;;
72557;SDS011;60583;50.094;8.748;2024-02-28T04:53:32;30.13;;;13.15;;
72557;SDS011;60583;50.094;8.748;2024-02-28T04:56:16;30.40;;;13.20;;
72557;SDS011;60583;50.094;8.748;2024-02-28T04:59:00;26.80;;;11.73;;
72557;SDS011;60583;50.094;8.748;2024-02-28T05:01:44;26.90;;;11.65;;
72557;SDS011;60583;50.094;8.748;2024-02-28T05:04:29;27.30;;;13.07;;
72557;SDS011;60583;50.094;8.748;2024-02-28T05:07:13;26.40;;;12.85;;
72557;SDS011;60583;50.094;8.748;2024-02-28T05:09:57;24.85;;;11.82;;
72557;SDS011;60583;50.094;8.748;2024-02-28T05:12:41;29.48;;;13.20;;
72557;SDS011;60583;50.094;8.748;2024-02-28T05:15:26;28.15;;;13.48;;
72557;SDS011;60583;50.094;8.748;2024-02-28T05:18:10;29.80;;;13.95;;
72557;SDS011;60583;50.094;8.748;2024-02-28T05:20:54;29.77;;;14.45;;
72557;SDS011;60583;50.094;8.748;2024-02-28T05:23:39;27.10;;;12.68;;
72557;SDS011;60583;50.094;8.748;2024-02-28T05:26:23;28.50;;;14.90;;
72557;SDS011;60583;50.094;8.748;2024-02-28T05:29:08;31.23;;;13.80;;
72557;SDS011;60583;50.094;8.748;2024-02-28T05:31:51;30.42;;;13.68;;
72557;SDS011;60583;50.094;8.748;2024-02-28T05:34:36;28.83;;;13.18;;
72557;SDS011;60583;50.094;8.748;2024-02-28T05:37:19;32.72;;;15.38;;
72557;SDS011;60583;50.094;8.748;2024-02-28T05:40:04;30.08;;;15.48;;
72557;SDS011;60583;50.094;8.748;2024-02-28T05:42:50;32.88;;;15.23;;
72557;SDS011;60583;50.094;8.748;2024-02-28T05:45:34;30.58;;;14.25;;
72557;SDS011;60583;50.094;8.748;2024-02-28T05:48:18;30.90;;;14.73;;
72557;SDS011;60583;50.094;8.748;2024-02-28T05:51:02;30.23;;;13.85;;
72557;SDS011;60583;50.094;8.748;2024-02-28T05:53:47;34.67;;;15.30;;
72557;SDS011;60583;50.094;8.748;2024-02-28T05:56:31;31.83;;;14.95;;
72557;SDS011;60583;50.094;8.748;2024-02-28T05:59:14;30.80;;;14.23;;
72557;SDS011;60583;50.094;8.748;2024-02-28T06:01:59;29.73;;;14.63;;
72557;SDS011;60583;50.094;8.748;2024-02-28T06:04:43;30.58;;;14.90;;
72557;SDS011;60583;50.094;8.748;2024-02-28T06:07:26;32.33;;;14.50;;
72557;SDS011;60583;50.094;8.748;2024-02-28T06:10:10;35.70;;;14.65;;
72557;SDS011;60583;50.094;8.748;2024-02-28T06:12:54;32.08;;;14.13;;
72557;SDS011;60583;50.094;8.748;2024-02-28T06:15:38;30.05;;;14.18;;
72557;SDS011;60583;50.094;8.748;2024-02-28T06:18:22;30.35;;;14.00;;
72557;SDS011;60583;50.094;8.748;2024-02-28T06:21:09;32.00;;;13.48;;
72557;SDS011;60583;50.094;8.748;2024-02-28T06:23:53;29.77;;;13.55;;
72557;SDS011;60583;50.094;8.748;2024-02-28T06:26:37;32.10;;;14.90;;
72557;SDS011;60583;50.094;8.748;2024-02-28T06:29:21;29.65;;;14.43;;
72557;SDS011;60583;50.094;8.748;2024-02-28T06:32:06;30.48;;;13.00;;
72557;SDS011;60583;50.094;8.748;2024-02-28T06:34:50;29.63;;;13.25;;
72557;SDS011;60583;50.094;8.748;2024-02-28T06:37:34;30.73;;;14.95;;
72557;SDS011;60583;50.094;8.748;2024-02-28T06:40:19;31.77;;;12.85;;
72557;SDS011;60583;50.094;8.748;2024-02-28T06:43:04;30.10;;;14.07;;
72557;SDS011;60583;50.094;8.748;2024-02-28T06:45:48;30.13;;;13.57;;
72557;SDS011;60583;50.094;8.748;2024-02-28T06:48:32;34.63;;;14.65;;
72557;SDS011;60583;50.094;8.748;2024-02-28T06:51:16;33.63;;;15.10;;
72557;SDS011;60583;50.094;8.748;2024-02-28T06:54:01;30.25;;;14.00;;
72557;SDS011;60583;50.094;8.748;2024-02-28T06:56:45;32.17;;;15.10;;
72557;SDS011;60583;50.094;8.748;2024-02-28T06:59:29;26.70;;;12.93;;
72557;SDS011;60583;50.094;8.748;2024-02-28T07:02:13;30.02;;;14.65;;
72557;SDS011;60583;50.094;8.748;2024-02-28T07:04:57;29.35;;;13.75;;
72557;SDS011;60583;50.094;8.748;2024-02-28T07:07:42;28.38;;;13.43;;
72557;SDS011;60583;50.094;8.748;2024-02-28T07:10:26;28.98;;;13.70;;
72557;SDS011;60583;50.094;8.748;2024-02-28T07:13:10;31.50;;;15.07;;
72557;SDS011;60583;50.094;8.748;2024-02-28T07:15:54;29.70;;;13.27;;
72557;SDS011;60583;50.094;8.748;2024-02-28T07:18:38;30.65;;;14.25;;
72557;SDS011;60583;50.094;8.748;2024-02-28T07:21:22;29.60;;;15.05;;
72557;SDS011;60583;50.094;8.748;2024-02-28T07:24:06;31.65;;;14.63;;
72557;SDS011;60583;50.094;8.748;2024-02-28T07:26:50;30.48;;;13.57;;
72557;SDS011;60583;50.094;8.748;2024-02-28T07:29:36;33.42;;;15.40;;
72557;SDS011;60583;50.094;8.748;2024-02-28T07:32:20;31.63;;;14.02;;
72557;SDS011;60583;50.094;8.748;2024-02-28T07:35:04;31.15;;;14.68;;
72557;SDS011;60583;50.094;8.748;2024-02-28T07:37:48;33.72;;;15.30;;
72557;SDS011;60583;50.094;8.748;2024-02-28T07:40:32;27.85;;;12.35;;
72557;SDS011;60583;50.094;8.748;2024-02-28T07:43:16;28.63;;;14.10;;
72557;SDS011;60583;50.094;8.748;2024-02-28T07:46:00;29.70;;;13.32;;
72557;SDS011;60583;50.094;8.748;2024-02-28T07:48:44;28.98;;;13.65;;
72557;SDS011;60583;50.094;8.748;2024-02-28T07:51:28;31.52;;;13.55;;
72557;SDS011;60583;50.094;8.748;2024-02-28T07:54:12;29.50;;;14.13;;
72557;SDS011;60583;50.094;8.748;2024-02-28T07:56:56;31.58;;;15.30;;
72557;SDS011;60583;50.094;8.748;2024-02-28T07:59:40;30.65;;;13.75;;
72557;SDS011;60583;50.094;8.748;2024-02-28T08:02:25;31.23;;;14.07;;
72557;SDS011;60583;50.094;8.748;2024-02-28T08:05:09;29.95;;;13.43;;
72557;SDS011;60583;50.094;8.748;2024-02-28T08:07:54;27.98;;;14.32;;
72557;SDS011;60583;50.094;8.748;2024-02-28T08:10:38;29.50;;;13.63;;
72557;SDS011;60583;50.094;8.748;2024-02-28T08:13:22;28.35;;;14.10;;
72557;SDS011;60583;50.094;8.748;2024-02-28T08:16:06;28.65;;;12.77;;
72557;SDS011;60583;50.094;8.748;2024-02-28T08:18:52;25.73;;;13.52;;
72557;SDS011;60583;50.094;8.748;2024-02-28T08:21:36;26.48;;;13.10;;
72557;SDS011;60583;50.094;8.748;2024-02-28T08:24:20;28.70;;;14.40;;
72557;SDS011;60583;50.094;8.748;2024-02-28T08:27:04;27.80;;;12.68;;
72557;SDS011;60583;50.094;8.748;2024-02-28T08:29:48;27.65;;;12.88;;
72557;SDS011;60583;50.094;8.748;2024-02-28T08:32:32;25.85;;;12.07;;
72557;SDS011;60583;50.094;8.748;2024-02-28T08:35:18;23.70;;;11.73;;
72557;SDS011;60583;50.094;8.748;2024-02-28T08:38:02;25.75;;;13.80;;
72557;SDS011;60583;50.094;8.748;2024-02-28T08:40:47;26.58;;;12.90;;
72557;SDS011;60583;50.094;8.748;2024-02-28T08:43:31;26.65;;;14.02;;
72557;SDS011;60583;50.094;8.748;2024-02-28T08:46:15;25.55;;;12.80;;
72557;SDS011;60583;50.094;8.748;2024-02-28T08:49:02;26.95;;;13.80;;
72557;SDS011;60583;50.094;8.748;2024-02-28T08:51:47;25.63;;;13.73;;
72557;SDS011;60583;50.094;8.748;2024-02-28T08:54:31;27.67;;;12.60;;
72557;SDS011;60583;50.094;8.748;2024-02-28T08:57:15;28.70;;;13.55;;
72557;SDS011;60583;50.094;8.748;2024-02-28T08:59:59;25.70;;;12.88;;
72557;SDS011;60583;50.094;8.748;2024-02-28T09:02:43;26.35;;;12.48;;
72557;SDS011;60583;50.094;8.748;2024-02-28T09:05:27;29.85;;;14.18;;
72557;SDS011;60583;50.094;8.748;2024-02-28T09:08:11;31.95;;;14.93;;
72557;SDS011;60583;50.094;8.748;2024-02-28T09:10:55;30.73;;;14.95;;
72557;SDS011;60583;50.094;8.748;2024-02-28T09:13:39;29.92;;;13.85;;
72557;SDS011;60583;50.094;8.748;2024-02-28T09:16:23;27.83;;;13.77;;
72557;SDS011;60583;50.094;8.748;2024-02-28T09:19:07;31.25;;;14.23;;
72557;SDS011;60583;50.094;8.748;2024-02-28T09:21:50;30.77;;;15.65;;
72557;SDS011;60583;50.094;8.748;2024-02-28T09:24:36;34.50;;;16.00;;
72557;SDS011;60583;50.094;8.748;2024-02-28T09:27:21;35.40;;;15.98;;
72557;SDS011;60583;50.094;8.748;2024-02-28T09:30:05;32.00;;;15.38;;
72557;SDS011;60583;50.094;8.748;2024-02-28T09:32:49;30.48;;;14.45;;
72557;SDS011;60583;50.094;8.748;2024-02-28T09:35:33;25.83;;;12.75;;
72557;SDS011;60583;50.094;8.748;2024-02-28T09:38:17;30.40;;;12.35;;
72557;SDS011;60583;50.094;8.748;2024-02-28T09:41:03;30.77;;;14.88;;
72557;SDS011;60583;50.094;8.748;2024-02-28T09:43:47;33.55;;;15.10;;
72557;SDS011;60583;50.094;8.748;2024-02-28T09:46:32;31.80;;;14.43;;
72557;SDS011;60583;50.094;8.748;2024-02-28T09:49:20;30.58;;;13.88;;
72557;SDS011;60583;50.094;8.748;2024-02-28T09:52:08;29.77;;;14.57;;
72557;SDS011;60583;50.094;8.748;2024-02-28T09:54:51;26.23;;;13.55;;
72557;SDS011;60583;50.094;8.748;2024-02-28T09:57:35;27.20;;;12.52;;
72557;SDS011;60583;50.094;8.748;2024-02-28T10:00:21;27.05;;;13.02;;
72557;SDS011;60583;50.094;8.748;2024-02-28T10:03:05;28.60;;;14.15;;
72557;SDS011;60583;50.094;8.748;2024-02-28T10:05:50;28.40;;;12.50;;
72557;SDS011;60583;50.094;8.748;2024-02-28T10:08:34;24.27;;;10.55;;
72557;SDS011;60583;50.094;8.748;2024-02-28T10:11:21;29.67;;;14.05;;
72557;SDS011;60583;50.094;8.748;2024-02-28T10:14:05;25.67;;;13.18;;
72557;SDS011;60583;50.094;8.748;2024-02-28T10:16:49;25.55;;;11.55;;
72557;SDS011;60583;50.094;8.748;2024-02-28T10:19:33;27.13;;;13.10;;
72557;SDS011;60583;50.094;8.748;2024-02-28T10:22:17;23.95;;;11.52;;
72557;SDS011;60583;50.094;8.748;2024-02-28T10:25:01;23.40;;;10.73;;
72557;SDS011;60583;50.094;8.748;2024-02-28T10:27:47;23.70;;;12.13;;
72557;SDS011;60583;50.094;8.748;2024-02-28T10:30:31;23.58;;;10.93;;
72557;SDS011;60583;50.094;8.748;2024-02-28T10:33:15;24.92;;;12.23;;
72557;SDS011;60583;50.094;8.748;2024-02-28T10:35:59;23.67;;;12.52;;
72557;SDS011;60583;50.094;8.748;2024-02-28T10:38:44;24.38;;;12.07;;
72557;SDS011;60583;50.094;8.748;2024-02-28T10:41:28;22.50;;;11.98;;
72557;SDS011;60583;50.094;8.748;2024-02-28T10:44:12;25.63;;;12.15;;
72557;SDS011;60583;50.094;8.748;2024-02-28T10:46:56;24.50;;;12.13;;
72557;SDS011;60583;50.094;8.748;2024-02-28T10:49:42;26.90;;;12.23;;
72557;SDS011;60583;50.094;8.748;2024-02-28T10:52:27;23.88;;;11.82;;
72557;SDS011;60583;50.094;8.748;2024-02-28T10:55:13;24.60;;;12.25;;
72557;SDS011;60583;50.094;8.748;2024-02-28T10:58:15;23.65;;;11.60;;
72557;SDS011;60583;50.094;8.748;2024-02-28T11:01:02;24.15;;;12.60;;
72557;SDS011;60583;50.094;8.748;2024-02-28T11:03:48;24.25;;;13.20;;
72557;SDS011;60583;50.094;8.748;2024-02-28T11:06:33;22.48;;;12.13;;
72557;SDS011;60583;50.094;8.748;2024-02-28T11:09:24;21.38;;;12.77;;
72557;SDS011;60583;50.094;8.748;2024-02-28T11:12:13;22.40;;;12.40;;
72557;SDS011;60583;50.094;8.748;2024-02-28T11:15:15;20.73;;;12.25;;
72557;SDS011;60583;50.094;8.748;2024-02-28T11:18:07;22.23;;;12.57;;
72557;SDS011;60583;50.094;8.748;2024-02-28T11:20:53;21.55;;;11.48;;
72557;SDS011;60583;50.094;8.748;2024-02-28T11:23:38;19.42;;;11.80;;
72557;SDS011;60583;50.094;8.748;2024-02-28T11:26:22;24.00;;;13.20;;
72557;SDS011;60583;50.094;8.748;2024-02-28T11:29:06;23.75;;;15.27;;
72557;SDS011;60583;50.094;8.748;2024-02-28T11:31:51;25.20;;;12.85;;
72557;SDS011;60583;50.094;8.748;2024-02-28T11:34:36;19.38;;;12.60;;
72557;SDS011;60583;50.094;8.748;2024-02-28T11:37:20;20.67;;;13.57;;
72557;SDS011;60583;50.094;8.748;2024-02-28T11:40:08;19.33;;;12.40;;
72557;SDS011;60583;50.094;8.748;2024-02-28T11:42:56;19.10;;;12.60;;
72557;SDS011;60583;50.094;8.748;2024-02-28T11:45:41;20.25;;;12.88;;
72557;SDS011;60583;50.094;8.748;2024-02-28T11:48:26;20.27;;;12.98;;
72557;SDS011;60583;50.094;8.748;2024-02-28T11:51:13;19.45;;;13.05;;
72557;SDS011;60583;50.094;8.748;2024-02-28T11:53:57;21.77;;;13.40;;
72557;SDS011;60583;50.094;8.748;2024-02-28T11:56:41;22.23;;;14.25;;
72557;SDS011;60583;50.094;8.748;2024-02-28T11:59:25;22.13;;;14.32;;
72557;SDS011;60583;50.094;8.748;2024-02-28T12:02:13;22.65;;;14.15;;
72557;SDS011;60583;50.094;8.748;2024-02-28T12:05:02;23.10;;;14.85;;
72557;SDS011;60583;50.094;8.748;2024-02-28T12:07:48;22.05;;;14.82;;
72557;SDS011;60583;50.094;8.748;2024-02-28T12:10:32;21.10;;;14.70;;
72557;SDS011;60583;50.094;8.748;2024-02-28T12:13:16;22.95;;;14.50;;
72557;SDS011;60583;50.094;8.748;2024-02-28T12:16:01;24.90;;;15.65;;
72557;SDS011;60583;50.094;8.748;2024-02-28T12:18:47;23.25;;;15.27;;
72557;SDS011;60583;50.094;8.748;2024-02-28T12:21:31;21.38;;;13.60;;
72557;SDS011;60583;50.094;8.748;2024-02-28T12:24:15;21.25;;;13.90;;
72557;SDS011;60583;50.094;8.748;2024-02-28T12:26:59;22.10;;;14.20;;
72557;SDS011;60583;50.094;8.748;2024-02-28T12:29:43;22.48;;;14.85;;
72557;SDS011;60583;50.094;8.748;2024-02-28T12:32:27;20.95;;;14.27;;
72557;SDS011;60583;50.094;8.748;2024-02-28T12:35:11;20.52;;;13.82;;
72557;SDS011;60583;50.094;8.748;2024-02-28T12:37:54;23.77;;;15.27;;
72557;SDS011;60583;50.094;8.748;2024-02-28T12:40:38;22.25;;;14.95;;
72557;SDS011;60583;50.094;8.748;2024-02-28T12:43:22;22.73;;;15.05;;
72557;SDS011;60583;50.094;8.748;2024-02-28T12:46:07;22.67;;;14.02;;
72557;SDS011;60583;50.094;8.748;2024-02-28T12:48:51;21.23;;;14.02;;
72557;SDS011;60583;50.094;8.748;2024-02-28T12:51:39;21.70;;;14.35;;
72557;SDS011;60583;50.094;8.748;2024-02-28T12:54:23;20.33;;;13.45;;
72557;SDS011;60583;50.094;8.748;2024-02-28T12:57:07;19.27;;;13.48;;
72557;SDS011;60583;50.094;8.748;2024-02-28T12:59:52;21.92;;;14.10;;
72557;SDS011;60583;50.094;8.748;2024-02-28T13:02:36;21.45;;;14.80;;
72557;SDS011;60583;50.094;8.748;2024-02-28T13:05:20;21.33;;;14.50;;
72557;SDS011;60583;50.094;8.748;2024-02-28T13:08:03;22.65;;;14.57;;
72557;SDS011;60583;50.094;8.748;2024-02-28T13:10:48;22.85;;;15.20;;
72557;SDS011;60583;50.094;8.748;2024-02-28T13:13:32;21.65;;;14.95;;
72557;SDS011;60583;50.094;8.748;2024-02-28T13:16:16;19.55;;;13.45;;
72557;SDS011;60583;50.094;8.748;2024-02-28T13:19:01;19.00;;;13.40;;
72557;SDS011;60583;50.094;8.748;2024-02-28T13:21:45;21.17;;;14.43;;
72557;SDS011;60583;50.094;8.748;2024-02-28T13:24:29;19.95;;;14.18;;
72557;SDS011;60583;50.094;8.748;2024-02-28T13:27:13;20.85;;;14.35;;
72557;SDS011;60583;50.094;8.748;2024-02-28T13:29:57;20.10;;;13.63;;
72557;SDS011;60583;50.094;8.748;2024-02-28T13:32:40;22.40;;;14.77;;
72557;SDS011;60583;50.094;8.748;2024-02-28T13:35:24;21.08;;;13.18;;
72557;SDS011;60583;50.094;8.748;2024-02-28T13:38:08;21.10;;;12.85;;
72557;SDS011;60583;50.094;8.748;2024-02-28T13:40:52;20.17;;;13.18;;
72557;SDS011;60583;50.094;8.748;2024-02-28T13:43:36;20.25;;;12.48;;
72557;SDS011;60583;50.094;8.748;2024-02-28T13:46:21;24.65;;;14.25;;
72557;SDS011;60583;50.094;8.748;2024-02-28T13:49:05;20.40;;;11.90;;
72557;SDS011;60583;50.094;8.748;2024-02-28T13:51:49;21.13;;;12.38;;
72557;SDS011;60583;50.094;8.748;2024-02-28T13:54:34;21.10;;;11.52;;
72557;SDS011;60583;50.094;8.748;2024-02-28T13:57:18;19.13;;;12.02;;
72557;SDS011;60583;50.094;8.748;2024-02-28T14:00:02;19.25;;;11.88;;
72557;SDS011;60583;50.094;8.748;2024-02-28T14:02:50;21.30;;;12.07;;
72557;SDS011;60583;50.094;8.748;2024-02-28T14:05:34;19.25;;;11.70;;
72557;SDS011;60583;50.094;8.748;2024-02-28T14:08:18;20.40;;;10.75;;
72557;SDS011;60583;50.094;8.748;2024-02-28T14:11:02;21.38;;;11.82;;
72557;SDS011;60583;50.094;8.748;2024-02-28T14:13:46;22.92;;;12.25;;
72557;SDS011;60583;50.094;8.748;2024-02-28T14:16:30;30.52;;;17.33;;
72557;SDS011;60583;50.094;8.748;2024-02-28T14:19:17;23.75;;;12.43;;
72557;SDS011;60583;50.094;8.748;2024-02-28T14:22:01;19.33;;;10.93;;
72557;SDS011;60583;50.094;8.748;2024-02-28T14:24:47;20.30;;;11.82;;
72557;SDS011;60583;50.094;8.748;2024-02-28T14:27:31;19.08;;;10.05;;
72557;SDS011;60583;50.094;8.748;2024-02-28T14:30:17;18.73;;;9.50;;
72557;SDS011;60583;50.094;8.748;2024-02-28T14:33:01;18.85;;;9.93;;
72557;SDS011;60583;50.094;8.748;2024-02-28T14:35:45;18.33;;;10.60;;
72557;SDS011;60583;50.094;8.748;2024-02-28T14:38:29;16.80;;;10.32;;
72557;SDS011;60583;50.094;8.748;2024-02-28T14:41:13;19.17;;;9.60;;
72557;SDS011;60583;50.094;8.748;2024-02-28T14:43:56;18.75;;;9.82;;
72557;SDS011;60583;50.094;8.748;2024-02-28T14:46:40;18.05;;;10.57;;
72557;SDS011;60583;50.094;8.748;2024-02-28T14:49:24;18.20;;;9.73;;
72557;SDS011;60583;50.094;8.748;2024-02-28T14:52:08;17.25;;;9.82;;
72557;SDS011;60583;50.094;8.748;2024-02-28T14:54:52;18.00;;;9.55;;
72557;SDS011;60583;50.094;8.748;2024-02-28T14:57:37;18.08;;;10.05;;
72557;SDS011;60583;50.094;8.748;2024-02-28T15:00:22;15.68;;;9.15;;
72557;SDS011;60583;50.094;8.748;2024-02-28T15:03:06;17.65;;;9.43;;
72557;SDS011;60583;50.094;8.748;2024-02-28T15:05:50;15.63;;;8.73;;
72557;SDS011;60583;50.094;8.748;2024-02-28T15:08:34;17.38;;;10.45;;
72557;SDS011;60583;50.094;8.748;2024-02-28T15:11:18;16.55;;;8.50;;
72557;SDS011;60583;50.094;8.748;2024-02-28T15:14:02;15.27;;;9.90;;
72557;SDS011;60583;50.094;8.748;2024-02-28T15:16:47;14.95;;;8.15;;
72557;SDS011;60583;50.094;8.748;2024-02-28T15:19:31;14.77;;;9.20;;
72557;SDS011;60583;50.094;8.748;2024-02-28T15:22:15;15.50;;;8.10;;
72557;SDS011;60583;50.094;8.748;2024-02-28T15:24:59;11.52;;;7.32;;
72557;SDS011;60583;50.094;8.748;2024-02-28T15:27:43;11.93;;;6.50;;
72557;SDS011;60583;50.094;8.748;2024-02-28T15:30:27;13.73;;;8.05;;
72557;SDS011;60583;50.094;8.748;2024-02-28T15:33:11;12.55;;;7.60;;
72557;SDS011;60583;50.094;8.748;2024-02-28T15:35:55;14.35;;;8.20;;
72557;SDS011;60583;50.094;8.748;2024-02-28T15:38:39;11.75;;;7.45;;
72557;SDS011;60583;50.094;8.748;2024-02-28T15:41:22;14.77;;;8.85;;
72557;SDS011;60583;50.094;8.748;2024-02-28T15:44:07;13.13;;;7.57;;
72557;SDS011;60583;50.094;8.748;2024-02-28T15:46:52;12.10;;;7.30;;
72557;SDS011;60583;50.094;8.748;2024-02-28T15:49:36;12.75;;;7.22;;
72557;SDS011;60583;50.094;8.748;2024-02-28T15:52:20;13.52;;;8.07;;
72557;SDS011;60583;50.094;8.748;2024-02-28T15:55:03;13.35;;;6.95;;
72557;SDS011;60583;50.094;8.748;2024-02-28T15:57:47;12.80;;;7.53;;
72557;SDS011;60583;50.094;8.748;2024-02-28T16:00:31;13.45;;;7.50;;
72557;SDS011;60583;50.094;8.748;2024-02-28T16:03:15;12.90;;;6.70;;